createdAt,value
2019-02-27T00:01:58.034Z,30.70
2019-02-27T00:04:27.579Z,30.73
2019-02-27T00:06:57.092Z,30.73
2019-02-27T00:09:27.032Z,32.43
2019-02-27T00:11:56.571Z,30.97
2019-02-27T00:14:28.808Z,32.60
2019-02-27T00:16:57.754Z,30.10
2019-02-27T00:19:30.918Z,30.90
2019-02-27T00:21:58.605Z,29.67
2019-02-27T00:24:29.935Z,31.13
2019-02-27T00:26:59.376Z,29.10
2019-02-27T00:29:29.548Z,29.90
2019-02-27T00:31:59.744Z,30.90
2019-02-27T00:34:32.831Z,28.33
2019-02-27T00:37:00.978Z,27.80
2019-02-27T00:39:31.308Z,29.73
2019-02-27T00:42:01.235Z,28.40
2019-02-27T00:44:33.977Z,29.77
2019-02-27T00:47:01.976Z,32.27
2019-02-27T00:49:32.341Z,31.40
2019-02-27T00:52:03.000Z,30.00
2019-02-27T00:54:32.546Z,31.00
2019-02-27T00:57:02.109Z,30.30
2019-02-27T00:59:33.153Z,30.53
2019-02-27T01:02:02.846Z,30.50
2019-02-27T01:04:34.961Z,29.63
2019-02-27T01:07:03.544Z,28.50
2019-02-27T01:09:33.127Z,30.23
2019-02-27T01:12:02.693Z,29.43
2019-02-27T01:14:32.286Z,30.30
2019-02-27T01:17:01.823Z,30.97
2019-02-27T01:19:31.874Z,30.47
2019-02-27T01:22:01.427Z,28.90
2019-02-27T01:24:31.008Z,31.57
2019-02-27T01:27:04.161Z,28.57
2019-02-27T01:29:32.142Z,29.47
2019-02-27T01:32:01.692Z,29.27
2019-02-27T01:34:31.643Z,28.23
2019-02-27T01:37:01.203Z,26.90
2019-02-27T01:39:30.774Z,27.43
2019-02-27T01:42:00.334Z,28.93
2019-02-27T01:44:29.897Z,27.60
2019-02-27T01:47:02.273Z,27.53
2019-02-27T01:49:30.654Z,28.17
2019-02-27T01:52:02.070Z,28.40
2019-02-27T01:54:32.757Z,27.20
2019-02-27T01:57:03.517Z,26.60
2019-02-27T01:59:33.213Z,28.50
2019-02-27T02:02:03.523Z,27.90
2019-02-27T02:04:34.105Z,26.40
2019-02-27T02:07:06.609Z,27.60
2019-02-27T02:09:37.107Z,27.60
2019-02-27T02:12:19.304Z,27.07
2019-02-27T02:14:58.971Z,26.37
2019-02-27T02:18:06.702Z,26.87
2019-02-27T02:21:23.298Z,27.07
2019-02-27T02:24:42.946Z,26.60
2019-02-27T02:28:17.561Z,26.73
2019-02-27T02:31:11.150Z,27.33
2019-02-27T02:34:10.379Z,27.20
2019-02-27T02:37:12.125Z,27.47
2019-02-27T02:40:05.049Z,29.20
2019-02-27T02:43:24.975Z,26.57
2019-02-27T02:46:09.809Z,26.13
2019-02-27T02:49:32.361Z,27.07
2019-02-27T02:52:51.970Z,24.93
2019-02-27T02:55:49.260Z,27.47
2019-02-27T02:58:31.648Z,26.17
2019-02-27T03:01:31.610Z,29.90
2019-02-27T03:04:57.521Z,28.03
2019-02-27T03:08:03.010Z,26.50
2019-02-27T03:11:18.153Z,26.97
2019-02-27T03:14:18.455Z,30.07
2019-02-27T03:17:17.973Z,29.13
2019-02-27T03:19:58.922Z,29.57
2019-02-27T03:23:16.441Z,28.67
2019-02-27T03:25:54.669Z,26.37
2019-02-27T03:29:20.676Z,27.20
2019-02-27T03:32:00.155Z,25.60
2019-02-27T03:35:01.855Z,27.77
2019-02-27T03:37:48.515Z,27.70
2019-02-27T03:40:55.073Z,27.37
2019-02-27T03:44:01.403Z,27.37
2019-02-27T03:46:51.234Z,28.40
2019-02-27T03:50:03.413Z,25.70
2019-02-27T03:53:10.707Z,25.70
2019-02-27T03:56:08.747Z,28.60
2019-02-27T03:59:06.046Z,31.63
2019-02-27T04:01:56.319Z,26.07
2019-02-27T04:05:05.446Z,28.20
2019-02-27T04:08:12.677Z,26.90
2019-02-27T04:10:42.727Z,27.37
2019-02-27T04:13:12.275Z,28.83
2019-02-27T04:15:42.347Z,27.83
2019-02-27T04:18:10.506Z,26.90
2019-02-27T04:20:40.545Z,28.67
2019-02-27T04:23:12.448Z,27.37
2019-02-27T04:25:41.302Z,27.40
2019-02-27T04:28:10.879Z,26.90
2019-02-27T04:30:40.404Z,27.53
2019-02-27T04:33:09.948Z,26.73
2019-02-27T04:35:40.130Z,27.00
2019-02-27T04:38:09.792Z,27.20
2019-02-27T04:40:41.714Z,28.23
2019-02-27T04:43:10.969Z,26.27
2019-02-27T04:45:40.484Z,27.90
2019-02-27T04:48:11.920Z,25.90
2019-02-27T04:50:41.705Z,27.03
2019-02-27T04:53:12.999Z,27.17
2019-02-27T04:55:43.048Z,28.07
2019-02-27T04:58:12.664Z,27.20
2019-02-27T05:00:42.217Z,26.33
2019-02-27T05:03:11.760Z,25.17
2019-02-27T05:05:41.539Z,28.53
2019-02-27T05:08:11.690Z,27.77
2019-02-27T05:10:41.264Z,28.77
2019-02-27T05:13:10.760Z,28.60
2019-02-27T05:15:40.321Z,29.20
2019-02-27T05:18:09.827Z,28.03
2019-02-27T05:20:39.826Z,27.70
2019-02-27T05:23:09.350Z,26.73
2019-02-27T05:25:39.227Z,26.13
2019-02-27T05:28:08.806Z,28.20
2019-02-27T05:30:38.394Z,26.20
2019-02-27T05:33:07.949Z,27.20
2019-02-27T05:35:37.497Z,29.47
2019-02-27T05:38:07.068Z,29.07
2019-02-27T05:40:36.614Z,29.10
2019-02-27T05:43:06.487Z,29.47
2019-02-27T05:45:36.124Z,27.20
2019-02-27T05:48:05.994Z,26.57
2019-02-27T05:50:36.610Z,25.63
2019-02-27T05:53:06.193Z,25.87
2019-02-27T05:55:39.040Z,27.37
2019-02-27T05:58:06.939Z,31.87
2019-02-27T06:00:36.491Z,27.70
2019-02-27T06:03:06.104Z,27.70
2019-02-27T06:05:36.653Z,27.10
2019-02-27T06:08:06.316Z,29.20
2019-02-27T06:10:36.238Z,28.83
2019-02-27T06:13:05.783Z,30.00
2019-02-27T06:15:35.350Z,27.10
2019-02-27T06:18:04.946Z,28.03
2019-02-27T06:20:34.524Z,27.13
2019-02-27T06:23:05.068Z,27.00
2019-02-27T06:25:35.694Z,27.27
2019-02-27T06:28:05.371Z,26.17
2019-02-27T06:30:34.858Z,24.60
2019-02-27T06:33:04.417Z,26.90
2019-02-27T06:35:34.373Z,26.47
2019-02-27T06:38:06.025Z,27.13
2019-02-27T06:40:35.587Z,29.23
2019-02-27T06:43:05.431Z,27.83
2019-02-27T06:45:35.335Z,28.67
2019-02-27T06:48:09.460Z,26.87
2019-02-27T06:50:36.299Z,31.20
2019-02-27T06:53:05.869Z,30.23
2019-02-27T06:55:35.431Z,26.73
2019-02-27T06:58:05.036Z,28.70
2019-02-27T07:00:36.678Z,27.10
2019-02-27T07:03:05.997Z,29.37
2019-02-27T07:05:35.907Z,30.80
2019-02-27T07:08:05.838Z,29.03
2019-02-27T07:10:35.393Z,30.40
2019-02-27T07:13:04.987Z,30.80
2019-02-27T07:15:34.562Z,27.50
2019-02-27T07:18:06.129Z,30.17
2019-02-27T07:20:35.780Z,28.40
2019-02-27T07:23:07.663Z,29.83
2019-02-27T07:25:41.948Z,29.20
2019-02-27T07:28:09.276Z,28.40
2019-02-27T07:30:39.747Z,28.10
2019-02-27T07:33:10.212Z,30.03
2019-02-27T07:35:40.269Z,27.77
2019-02-27T07:38:10.269Z,28.97
2019-02-27T07:40:42.698Z,26.10
2019-02-27T07:43:11.465Z,27.53
2019-02-27T07:45:45.020Z,27.30
2019-02-27T07:48:12.258Z,25.33
2019-02-27T07:50:41.777Z,27.67
2019-02-27T07:53:11.328Z,29.50
2019-02-27T07:55:40.900Z,31.00
2019-02-27T07:58:10.472Z,33.37
2019-02-27T08:00:40.022Z,29.37
2019-02-27T08:03:12.865Z,28.93
2019-02-27T08:05:41.170Z,28.77
2019-02-27T08:08:11.081Z,28.30
2019-02-27T08:10:40.618Z,28.20
2019-02-27T08:13:10.278Z,30.07
2019-02-27T08:15:39.789Z,31.53
2019-02-27T08:18:09.371Z,27.13
2019-02-27T08:20:39.440Z,25.70
2019-02-27T08:23:09.000Z,25.43
2019-02-27T08:25:38.557Z,29.13
2019-02-27T08:28:08.408Z,26.70
2019-02-27T08:30:37.924Z,25.00
2019-02-27T08:33:08.461Z,25.30
2019-02-27T08:35:38.557Z,24.63
2019-02-27T08:38:08.628Z,25.30
2019-02-27T08:40:38.249Z,23.40
2019-02-27T08:43:10.292Z,24.77
2019-02-27T08:45:38.891Z,23.23
2019-02-27T08:48:08.420Z,24.63
2019-02-27T08:50:38.433Z,25.10
2019-02-27T08:53:07.919Z,22.40
2019-02-27T08:58:08.673Z,22.80
2019-02-27T09:00:38.888Z,22.07
2019-02-27T09:03:08.530Z,22.83
2019-02-27T09:05:38.077Z,22.50
2019-02-27T09:08:10.103Z,22.50
2019-02-27T09:10:39.367Z,24.60
2019-02-27T09:13:08.859Z,22.60
2019-02-27T09:15:38.421Z,21.83
2019-02-27T09:18:07.965Z,20.30
2019-02-27T09:20:37.448Z,19.80
2019-02-27T09:23:07.659Z,20.40
2019-02-27T09:25:37.356Z,19.90
2019-02-27T09:28:09.264Z,19.00
2019-02-27T09:30:38.069Z,19.20
2019-02-27T09:33:07.651Z,17.57
2019-02-27T09:35:38.756Z,18.10
2019-02-27T09:38:09.171Z,19.73
2019-02-27T09:40:39.682Z,18.43
2019-02-27T09:43:09.271Z,17.87
2019-02-27T09:45:38.757Z,18.37
2019-02-27T09:48:08.280Z,18.00
2019-02-27T09:50:39.660Z,17.37
2019-02-27T09:53:09.292Z,17.67
2019-02-27T09:55:39.276Z,14.50
2019-02-27T09:58:11.124Z,17.03
2019-02-27T10:00:52.140Z,15.70
2019-02-27T10:03:21.723Z,15.60
2019-02-27T10:05:51.413Z,15.33
2019-02-27T10:08:20.915Z,15.27
2019-02-27T10:10:50.404Z,15.30
2019-02-27T10:13:19.964Z,15.10
2019-02-27T10:15:49.481Z,13.00
2019-02-27T10:18:22.012Z,11.90
2019-02-27T10:20:50.716Z,13.30
2019-02-27T10:23:20.228Z,11.00
2019-02-27T10:25:50.012Z,11.60
2019-02-27T10:28:19.655Z,11.33
2019-02-27T10:30:49.923Z,10.90
2019-02-27T10:33:20.280Z,11.40
2019-02-27T10:35:50.166Z,10.53
2019-02-27T10:38:19.672Z,11.07
2019-02-27T10:40:49.147Z,10.77
2019-02-27T10:43:18.696Z,10.93
2019-02-27T10:45:49.383Z,10.80
2019-02-27T10:48:19.354Z,11.47
2019-02-27T10:50:48.854Z,11.37
2019-02-27T10:53:18.387Z,9.77
2019-02-27T10:55:49.179Z,10.73
2019-02-27T10:58:19.498Z,10.10
2019-02-27T11:00:50.131Z,10.30
2019-02-27T11:03:19.623Z,9.90
2019-02-27T11:05:52.053Z,10.50
2019-02-27T11:08:20.744Z,10.03
2019-02-27T11:10:50.274Z,11.63
2019-02-27T11:13:19.856Z,11.40
2019-02-27T11:15:49.844Z,10.07
2019-02-27T11:18:19.715Z,9.90
2019-02-27T11:20:49.671Z,12.40
2019-02-27T11:23:19.203Z,11.47
2019-02-27T11:25:48.696Z,10.70
2019-02-27T11:28:18.198Z,11.00
2019-02-27T11:30:47.725Z,12.03
2019-02-27T11:33:25.487Z,11.83
2019-02-27T11:35:48.421Z,11.20
2019-02-27T11:38:18.056Z,10.80
2019-02-27T11:40:47.550Z,9.70
2019-02-27T11:43:17.277Z,9.97
2019-02-27T11:45:46.886Z,10.77
2019-02-27T11:48:16.896Z,11.77
2019-02-27T11:50:46.408Z,10.03
2019-02-27T11:53:15.989Z,10.43
2019-02-27T11:55:47.146Z,9.23
2019-02-27T11:58:17.137Z,9.93
2019-02-27T12:00:47.044Z,9.73
2019-02-27T12:03:16.536Z,9.63
2019-02-27T12:05:46.112Z,7.40
2019-02-27T12:08:16.033Z,7.67
2019-02-27T12:10:45.533Z,7.97
2019-02-27T12:13:15.019Z,8.23
2019-02-27T12:15:44.981Z,6.80
2019-02-27T12:18:14.467Z,7.40
2019-02-27T12:20:44.016Z,7.47
2019-02-27T12:23:13.585Z,8.17
2019-02-27T12:25:43.495Z,7.47
2019-02-27T12:28:15.203Z,7.17
2019-02-27T12:30:44.993Z,7.53
2019-02-27T12:33:14.892Z,7.20
2019-02-27T12:35:45.045Z,6.87
2019-02-27T12:38:14.689Z,7.60
2019-02-27T12:40:44.488Z,7.60
2019-02-27T12:43:17.221Z,8.17
2019-02-27T12:45:45.569Z,7.43
2019-02-27T12:48:15.141Z,7.90
2019-02-27T12:50:44.728Z,7.67
2019-02-27T12:53:14.931Z,7.67
2019-02-27T12:55:44.595Z,7.50
2019-02-27T12:58:14.109Z,8.00
2019-02-27T13:00:44.287Z,7.90
2019-02-27T13:03:13.808Z,7.70
2019-02-27T13:05:43.756Z,7.87
2019-02-27T13:08:13.285Z,8.07
2019-02-27T13:10:42.814Z,7.10
2019-02-27T13:13:12.328Z,6.93
2019-02-27T13:15:41.904Z,7.57
2019-02-27T13:18:11.426Z,6.97
2019-02-27T13:20:43.056Z,7.40
2019-02-27T13:23:12.866Z,7.50
2019-02-27T13:25:42.729Z,6.63
2019-02-27T13:28:14.655Z,6.80
2019-02-27T13:30:43.418Z,5.83
2019-02-27T13:33:12.955Z,5.90
2019-02-27T13:35:42.577Z,6.67
2019-02-27T13:38:12.515Z,5.87
2019-02-27T13:40:42.114Z,4.90
2019-02-27T13:43:11.673Z,6.13
2019-02-27T13:45:41.230Z,5.53
2019-02-27T13:48:10.786Z,6.13
2019-02-27T13:50:40.305Z,5.70
2019-02-27T13:53:09.821Z,6.00
2019-02-27T13:55:39.335Z,5.60
2019-02-27T13:58:08.871Z,5.80
2019-02-27T14:00:38.673Z,5.80
2019-02-27T14:03:12.382Z,5.87
2019-02-27T14:05:39.445Z,6.33
2019-02-27T14:08:09.067Z,7.20
2019-02-27T14:10:38.674Z,5.40
2019-02-27T14:13:09.665Z,6.03
2019-02-27T14:15:39.526Z,7.00
2019-02-27T14:18:09.428Z,6.40
2019-02-27T14:20:39.335Z,6.30
2019-02-27T14:23:08.945Z,6.90
2019-02-27T14:25:38.492Z,6.60
2019-02-27T14:28:08.008Z,5.97
2019-02-27T14:30:40.761Z,6.90
2019-02-27T14:33:10.962Z,7.00
2019-02-27T14:35:40.688Z,7.60
2019-02-27T14:38:10.238Z,7.07
2019-02-27T14:40:41.238Z,6.57
2019-02-27T14:43:10.963Z,6.50
2019-02-27T14:45:41.049Z,7.50
2019-02-27T14:48:10.785Z,8.00
2019-02-27T14:50:40.337Z,8.30
2019-02-27T14:53:09.840Z,7.53
2019-02-27T14:55:39.393Z,7.60
2019-02-27T14:58:09.292Z,7.70
2019-02-27T15:00:40.900Z,7.23
2019-02-27T15:03:10.190Z,7.03
2019-02-27T15:05:43.136Z,7.73
2019-02-27T15:08:10.980Z,8.13
2019-02-27T15:10:41.292Z,7.20
2019-02-27T15:13:11.326Z,7.13
2019-02-27T15:15:43.657Z,7.50
2019-02-27T15:18:13.967Z,6.70
2019-02-27T15:20:43.329Z,6.80
2019-02-27T15:23:12.901Z,7.83
2019-02-27T15:25:43.422Z,6.80
2019-02-27T15:28:13.110Z,6.93
2019-02-27T15:30:46.348Z,7.60
2019-02-27T15:33:16.375Z,6.67
2019-02-27T15:35:45.706Z,7.03
2019-02-27T15:38:15.173Z,7.20
2019-02-27T15:40:45.270Z,6.80
2019-02-27T15:43:17.367Z,6.80
2019-02-27T15:45:48.775Z,7.93
2019-02-27T15:48:18.592Z,6.47
2019-02-27T15:50:48.485Z,7.50
2019-02-27T15:53:17.996Z,7.37
2019-02-27T15:55:47.497Z,7.40
2019-02-27T15:58:17.037Z,7.40
2019-02-27T16:00:52.278Z,7.77
2019-02-27T16:03:18.125Z,7.77
2019-02-27T16:05:47.620Z,6.60
2019-02-27T16:08:17.260Z,8.33
2019-02-27T16:10:54.509Z,7.33
2019-02-27T16:13:18.397Z,6.53
2019-02-27T16:15:48.413Z,7.23
2019-02-27T16:18:19.086Z,7.63
2019-02-27T16:20:49.834Z,7.33
2019-02-27T16:23:19.818Z,7.60
2019-02-27T16:25:52.874Z,7.03
2019-02-27T16:28:20.698Z,7.63
2019-02-27T16:30:50.188Z,7.63
2019-02-27T16:33:23.968Z,7.93
2019-02-27T16:35:51.416Z,8.63
2019-02-27T16:38:20.932Z,9.07
2019-02-27T16:40:52.524Z,9.27
2019-02-27T16:43:21.704Z,9.03
2019-02-27T16:45:51.346Z,8.90
2019-02-27T16:48:20.898Z,8.30
2019-02-27T16:50:50.473Z,9.80
2019-02-27T16:53:20.367Z,8.57
2019-02-27T16:55:49.870Z,7.60
2019-02-27T16:58:19.521Z,8.73
2019-02-27T17:00:49.042Z,8.63
2019-02-27T17:03:19.836Z,8.40
2019-02-27T17:05:49.898Z,8.50
2019-02-27T17:08:19.402Z,7.90
2019-02-27T17:10:51.741Z,8.70
2019-02-27T17:13:20.201Z,7.40
2019-02-27T17:15:49.740Z,9.43
2019-02-27T17:18:19.269Z,8.37
2019-02-27T17:20:48.873Z,8.23
2019-02-27T17:23:18.391Z,8.00
2019-02-27T17:25:48.280Z,8.30
2019-02-27T17:28:17.765Z,8.63
2019-02-27T17:30:47.693Z,8.77
2019-02-27T17:33:17.245Z,9.37
2019-02-27T17:35:46.718Z,9.10
2019-02-27T17:38:16.229Z,9.40
2019-02-27T17:40:45.782Z,9.50
2019-02-27T17:43:15.758Z,9.50
2019-02-27T17:45:46.996Z,10.03
2019-02-27T17:48:16.478Z,10.77
2019-02-27T17:50:46.148Z,11.10
2019-02-27T17:53:15.691Z,12.37
2019-02-27T17:55:45.367Z,11.37
2019-02-27T17:58:15.478Z,12.00
2019-02-27T18:00:50.059Z,10.60
2019-02-27T18:03:17.163Z,11.10
2019-02-27T18:05:47.026Z,11.90
2019-02-27T18:08:17.226Z,12.57
2019-02-27T18:10:46.781Z,12.00
2019-02-27T18:13:16.328Z,13.30
2019-02-27T18:15:45.836Z,12.57
2019-02-27T18:18:15.808Z,12.53
2019-02-27T18:20:45.800Z,13.43
2019-02-27T18:23:15.347Z,12.43
2019-02-27T18:25:44.856Z,12.60
2019-02-27T18:28:14.352Z,13.63
2019-02-27T18:30:44.200Z,13.17
2019-02-27T18:33:17.301Z,12.00
2019-02-27T18:35:45.453Z,13.27
2019-02-27T18:38:14.945Z,12.53
2019-02-27T18:40:44.912Z,12.40
2019-02-27T18:43:14.457Z,13.27
2019-02-27T18:45:43.990Z,13.53
2019-02-27T18:48:15.131Z,13.00
2019-02-27T18:50:44.779Z,12.37
2019-02-27T18:53:14.662Z,13.13
2019-02-27T18:55:44.304Z,12.50
2019-02-27T18:58:13.932Z,13.53
2019-02-27T19:00:43.519Z,12.60
2019-02-27T19:03:13.150Z,12.63
2019-02-27T19:05:42.663Z,14.23
2019-02-27T19:08:12.488Z,14.13
2019-02-27T19:10:42.704Z,13.63
2019-02-27T19:13:12.484Z,15.08
2019-02-27T19:15:45.259Z,13.87
2019-02-27T19:18:13.333Z,14.20
2019-02-27T19:20:42.933Z,14.30
2019-02-27T19:23:17.122Z,15.77
2019-02-27T19:25:43.879Z,14.37
2019-02-27T19:28:13.911Z,15.90
2019-02-27T19:30:43.892Z,15.73
2019-02-27T19:33:13.699Z,16.00
2019-02-27T19:35:43.633Z,15.43
2019-02-27T19:38:13.863Z,15.40
2019-02-27T19:40:43.503Z,16.03
2019-02-27T19:43:13.012Z,19.97
2019-02-27T19:45:42.682Z,18.47
2019-02-27T19:48:12.702Z,20.07
2019-02-27T19:50:45.153Z,22.13
2019-02-27T19:53:13.711Z,20.70
2019-02-27T19:55:43.256Z,22.67
2019-02-27T19:58:16.999Z,20.80
2019-02-27T20:00:48.361Z,21.70
2019-02-27T20:03:15.303Z,23.23
2019-02-27T20:05:44.806Z,23.87
2019-02-27T20:08:14.648Z,21.87
2019-02-27T20:10:44.457Z,21.70
2019-02-27T20:13:13.982Z,21.23
2019-02-27T20:15:45.819Z,21.57
2019-02-27T20:18:15.480Z,20.50
2019-02-27T20:20:45.413Z,20.50
2019-02-27T20:23:14.998Z,20.50
2019-02-27T20:25:44.653Z,20.40
2019-02-27T20:28:14.689Z,22.63
2019-02-27T20:30:44.230Z,20.93
2019-02-27T20:33:13.949Z,21.33
2019-02-27T20:35:43.929Z,21.47
2019-02-27T20:38:16.179Z,20.33
2019-02-27T20:40:44.971Z,22.77
2019-02-27T20:43:14.798Z,21.70
2019-02-27T20:45:44.746Z,21.87
2019-02-27T20:48:14.300Z,21.40
2019-02-27T20:50:44.931Z,21.20
2019-02-27T20:53:14.515Z,21.77
2019-02-27T20:55:44.763Z,21.07
2019-02-27T20:58:16.834Z,21.60
2019-02-27T21:00:45.468Z,21.57
2019-02-27T21:03:15.000Z,19.80
2019-02-27T21:05:44.524Z,19.23
2019-02-27T21:08:15.234Z,21.00
2019-02-27T21:10:44.801Z,21.90
2019-02-27T21:13:16.019Z,21.03
2019-02-27T21:15:45.507Z,20.20
2019-02-27T21:18:15.037Z,21.70
2019-02-27T21:20:45.156Z,21.70
2019-02-27T21:23:15.955Z,20.40
2019-02-27T21:25:48.639Z,22.57
2019-02-27T21:28:20.994Z,21.03
2019-02-27T21:30:51.858Z,22.53
2019-02-27T21:33:19.980Z,23.80
2019-02-27T21:35:49.620Z,22.60
2019-02-27T21:38:19.794Z,24.80
2019-02-27T21:40:49.949Z,23.90
2019-02-27T21:43:25.228Z,23.57
2019-02-27T21:45:51.045Z,22.83
2019-02-27T21:48:23.409Z,23.40
2019-02-27T21:50:52.330Z,24.37
2019-02-27T21:53:22.218Z,25.00
2019-02-27T21:55:51.772Z,25.17
2019-02-27T21:58:21.311Z,23.77
2019-02-27T22:00:50.858Z,24.60
2019-02-27T22:03:20.412Z,24.30
2019-02-27T22:05:52.552Z,26.63
2019-02-27T22:08:21.107Z,28.27
2019-02-27T22:10:53.542Z,26.40
2019-02-27T22:13:29.150Z,26.50
2019-02-27T22:15:55.907Z,27.33
2019-02-27T22:18:24.736Z,26.80
2019-02-27T22:20:59.437Z,27.23
2019-02-27T22:23:25.832Z,27.50
2019-02-27T22:25:55.390Z,28.57
2019-02-27T22:28:24.952Z,29.90
2019-02-27T22:30:54.921Z,29.47
2019-02-27T22:33:24.865Z,29.67
2019-02-27T22:35:54.347Z,28.30
2019-02-27T22:38:26.585Z,27.70
2019-02-27T22:40:55.068Z,31.00
2019-02-27T22:43:25.024Z,28.73
2019-02-27T22:45:54.716Z,28.93
2019-02-27T22:48:27.667Z,29.23
2019-02-27T22:50:55.620Z,31.80
2019-02-27T22:53:26.223Z,29.83
2019-02-27T22:55:56.548Z,29.23
2019-02-27T22:58:27.505Z,31.37
2019-02-27T23:01:20.992Z,31.27
2019-02-27T23:03:59.602Z,30.17
2019-02-27T23:06:29.099Z,29.70
2019-02-27T23:09:00.332Z,30.60
2019-02-27T23:11:29.848Z,32.90
2019-02-27T23:13:59.353Z,31.10
2019-02-27T23:16:29.747Z,32.07
2019-02-27T23:19:00.113Z,31.80
2019-02-27T23:21:29.644Z,31.93
2019-02-27T23:23:59.493Z,28.97
2019-02-27T23:26:29.111Z,32.20
2019-02-27T23:28:58.634Z,33.43
2019-02-27T23:31:28.273Z,35.50
2019-02-27T23:33:57.876Z,33.90
2019-02-27T23:36:27.411Z,35.40
2019-02-27T23:38:56.929Z,32.53
2019-02-27T23:41:26.571Z,37.63
2019-02-27T23:43:56.077Z,35.43
2019-02-27T23:46:26.092Z,36.33
2019-02-27T23:48:55.631Z,37.43
2019-02-27T23:51:25.278Z,35.40
2019-02-27T23:53:54.853Z,37.00
2019-02-27T23:56:24.397Z,36.40
2019-02-27T23:58:54.203Z,36.93
